Terminal Aerodrome Forecast
Issued by NWS Grand Forks, ND

Home | Current Version | Previous Version | Graphics & Text | Print | Product List | Glossary On
Versions: 1 2 3 4 5 6 7 8 9 10 11 12 13 14 15
000
FTUS43 KFGF 230500
TAFFAR
TAF
KFAR 230525Z 2306/2406 04009KT 5SM -RASN OVC025
     FM231000 01009KT 1SM -SN OVC004
     FM231800 34015KT 3SM -SN OVC007
     FM232300 33012KT 4SM BR OVC015=

USA.gov is the U.S. government's official web portal to all federal, state and local government web resources and services.